sensor_id;sensor_type;location;lat;lon;timestamp;P1;durP1;ratioP1;P2;durP2;ratioP2
84999;SDS011;75320;51.608;7.952;2024-01-07T00:00:28;30.17;;;14.43;;
84999;SDS011;75320;51.608;7.952;2024-01-07T00:02:55;39.90;;;16.70;;
84999;SDS011;75320;51.608;7.952;2024-01-07T00:05:20;26.73;;;14.15;;
84999;SDS011;75320;51.608;7.952;2024-01-07T00:07:45;27.90;;;14.43;;
84999;SDS011;75320;51.608;7.952;2024-01-07T00:10:11;29.40;;;14.65;;
84999;SDS011;75320;51.608;7.952;2024-01-07T00:12:36;31.48;;;15.30;;
84999;SDS011;75320;51.608;7.952;2024-01-07T00:15:01;31.07;;;16.40;;
84999;SDS011;75320;51.608;7.952;2024-01-07T00:17:27;30.80;;;15.95;;
84999;SDS011;75320;51.608;7.952;2024-01-07T00:19:53;29.95;;;15.75;;
84999;SDS011;75320;51.608;7.952;2024-01-07T00:22:18;31.75;;;15.70;;
84999;SDS011;75320;51.608;7.952;2024-01-07T00:24:45;34.60;;;17.10;;
84999;SDS011;75320;51.608;7.952;2024-01-07T00:27:12;33.08;;;16.85;;
84999;SDS011;75320;51.608;7.952;2024-01-07T00:29:38;28.75;;;16.05;;
84999;SDS011;75320;51.608;7.952;2024-01-07T00:32:05;33.20;;;16.80;;
84999;SDS011;75320;51.608;7.952;2024-01-07T00:34:30;31.70;;;16.90;;
84999;SDS011;75320;51.608;7.952;2024-01-07T00:36:57;35.30;;;16.23;;
84999;SDS011;75320;51.608;7.952;2024-01-07T00:39:22;37.17;;;17.47;;
84999;SDS011;75320;51.608;7.952;2024-01-07T00:41:47;33.07;;;17.97;;
84999;SDS011;75320;51.608;7.952;2024-01-07T00:44:13;36.97;;;18.67;;
84999;SDS011;75320;51.608;7.952;2024-01-07T00:46:39;28.95;;;15.95;;
84999;SDS011;75320;51.608;7.952;2024-01-07T00:49:04;31.57;;;17.33;;
84999;SDS011;75320;51.608;7.952;2024-01-07T00:51:29;32.47;;;16.67;;
84999;SDS011;75320;51.608;7.952;2024-01-07T00:53:55;28.57;;;15.30;;
84999;SDS011;75320;51.608;7.952;2024-01-07T00:56:20;30.80;;;15.77;;
84999;SDS011;75320;51.608;7.952;2024-01-07T00:58:45;31.07;;;17.17;;
84999;SDS011;75320;51.608;7.952;2024-01-07T01:01:11;30.23;;;17.25;;
84999;SDS011;75320;51.608;7.952;2024-01-07T01:03:37;26.55;;;14.82;;
84999;SDS011;75320;51.608;7.952;2024-01-07T01:06:03;27.20;;;15.73;;
84999;SDS011;75320;51.608;7.952;2024-01-07T01:08:29;28.70;;;14.05;;
84999;SDS011;75320;51.608;7.952;2024-01-07T01:10:55;30.63;;;16.98;;
84999;SDS011;75320;51.608;7.952;2024-01-07T01:13:20;27.30;;;15.23;;
84999;SDS011;75320;51.608;7.952;2024-01-07T01:15:47;32.90;;;18.23;;
84999;SDS011;75320;51.608;7.952;2024-01-07T01:18:12;31.40;;;17.13;;
84999;SDS011;75320;51.608;7.952;2024-01-07T01:20:38;27.45;;;14.55;;
84999;SDS011;75320;51.608;7.952;2024-01-07T01:23:05;32.53;;;17.80;;
84999;SDS011;75320;51.608;7.952;2024-01-07T01:25:30;29.80;;;17.00;;
84999;SDS011;75320;51.608;7.952;2024-01-07T01:27:56;29.37;;;15.27;;
84999;SDS011;75320;51.608;7.952;2024-01-07T01:30:22;30.85;;;16.75;;
84999;SDS011;75320;51.608;7.952;2024-01-07T01:32:47;31.67;;;16.17;;
84999;SDS011;75320;51.608;7.952;2024-01-07T01:35:12;26.27;;;14.70;;
84999;SDS011;75320;51.608;7.952;2024-01-07T01:37:38;31.13;;;15.63;;
84999;SDS011;75320;51.608;7.952;2024-01-07T01:40:03;31.23;;;16.25;;
84999;SDS011;75320;51.608;7.952;2024-01-07T01:42:29;25.23;;;14.95;;
84999;SDS011;75320;51.608;7.952;2024-01-07T01:44:54;26.17;;;14.75;;
84999;SDS011;75320;51.608;7.952;2024-01-07T01:47:24;22.80;;;13.98;;
84999;SDS011;75320;51.608;7.952;2024-01-07T01:49:51;23.48;;;15.18;;
84999;SDS011;75320;51.608;7.952;2024-01-07T01:52:17;23.70;;;14.77;;
84999;SDS011;75320;51.608;7.952;2024-01-07T01:54:42;26.02;;;14.43;;
84999;SDS011;75320;51.608;7.952;2024-01-07T01:57:08;26.92;;;15.25;;
84999;SDS011;75320;51.608;7.952;2024-01-07T01:59:40;26.92;;;15.02;;
84999;SDS011;75320;51.608;7.952;2024-01-07T02:02:07;23.95;;;15.20;;
84999;SDS011;75320;51.608;7.952;2024-01-07T02:04:33;23.83;;;14.02;;
84999;SDS011;75320;51.608;7.952;2024-01-07T02:06:58;26.10;;;15.60;;
84999;SDS011;75320;51.608;7.952;2024-01-07T02:09:24;25.70;;;14.15;;
84999;SDS011;75320;51.608;7.952;2024-01-07T02:12:02;24.27;;;13.80;;
84999;SDS011;75320;51.608;7.952;2024-01-07T02:14:29;23.60;;;13.63;;
84999;SDS011;75320;51.608;7.952;2024-01-07T02:16:55;26.02;;;15.30;;
84999;SDS011;75320;51.608;7.952;2024-01-07T02:19:20;24.25;;;14.10;;
84999;SDS011;75320;51.608;7.952;2024-01-07T02:21:47;26.45;;;15.38;;
84999;SDS011;75320;51.608;7.952;2024-01-07T02:24:15;25.75;;;16.27;;
84999;SDS011;75320;51.608;7.952;2024-01-07T02:26:41;29.45;;;14.75;;
84999;SDS011;75320;51.608;7.952;2024-01-07T02:29:06;26.07;;;15.23;;
84999;SDS011;75320;51.608;7.952;2024-01-07T02:31:33;26.57;;;16.13;;
84999;SDS011;75320;51.608;7.952;2024-01-07T02:34:00;24.38;;;15.10;;
84999;SDS011;75320;51.608;7.952;2024-01-07T02:36:25;27.20;;;15.18;;
84999;SDS011;75320;51.608;7.952;2024-01-07T02:38:52;30.20;;;15.88;;
84999;SDS011;75320;51.608;7.952;2024-01-07T02:41:17;28.95;;;16.33;;
84999;SDS011;75320;51.608;7.952;2024-01-07T02:43:43;23.95;;;14.70;;
84999;SDS011;75320;51.608;7.952;2024-01-07T02:46:08;28.10;;;15.50;;
84999;SDS011;75320;51.608;7.952;2024-01-07T02:48:34;29.13;;;16.43;;
84999;SDS011;75320;51.608;7.952;2024-01-07T02:51:00;28.40;;;15.55;;
84999;SDS011;75320;51.608;7.952;2024-01-07T02:53:28;27.50;;;15.55;;
84999;SDS011;75320;51.608;7.952;2024-01-07T02:55:54;31.02;;;17.20;;
84999;SDS011;75320;51.608;7.952;2024-01-07T02:58:19;31.80;;;16.13;;
84999;SDS011;75320;51.608;7.952;2024-01-07T03:00:45;26.38;;;15.10;;
84999;SDS011;75320;51.608;7.952;2024-01-07T03:03:11;26.63;;;14.82;;
84999;SDS011;75320;51.608;7.952;2024-01-07T03:05:38;26.33;;;14.75;;
84999;SDS011;75320;51.608;7.952;2024-01-07T03:08:03;28.80;;;16.40;;
84999;SDS011;75320;51.608;7.952;2024-01-07T03:10:29;25.00;;;14.18;;
84999;SDS011;75320;51.608;7.952;2024-01-07T03:12:54;25.83;;;15.23;;
84999;SDS011;75320;51.608;7.952;2024-01-07T03:15:19;26.23;;;15.37;;
84999;SDS011;75320;51.608;7.952;2024-01-07T03:17:45;29.70;;;16.45;;
84999;SDS011;75320;51.608;7.952;2024-01-07T03:20:10;27.95;;;15.38;;
84999;SDS011;75320;51.608;7.952;2024-01-07T03:22:36;25.48;;;13.90;;
84999;SDS011;75320;51.608;7.952;2024-01-07T03:25:03;25.13;;;14.95;;
84999;SDS011;75320;51.608;7.952;2024-01-07T03:27:28;28.95;;;15.63;;
84999;SDS011;75320;51.608;7.952;2024-01-07T03:29:54;25.23;;;13.90;;
84999;SDS011;75320;51.608;7.952;2024-01-07T03:32:20;26.33;;;16.70;;
84999;SDS011;75320;51.608;7.952;2024-01-07T03:34:47;24.63;;;15.27;;
84999;SDS011;75320;51.608;7.952;2024-01-07T03:37:12;26.20;;;14.90;;
84999;SDS011;75320;51.608;7.952;2024-01-07T03:39:39;24.15;;;15.25;;
84999;SDS011;75320;51.608;7.952;2024-01-07T03:42:04;28.88;;;14.73;;
84999;SDS011;75320;51.608;7.952;2024-01-07T03:44:36;23.35;;;14.57;;
84999;SDS011;75320;51.608;7.952;2024-01-07T03:47:01;30.90;;;15.60;;
84999;SDS011;75320;51.608;7.952;2024-01-07T03:49:26;24.67;;;15.13;;
84999;SDS011;75320;51.608;7.952;2024-01-07T03:51:53;26.30;;;15.63;;
84999;SDS011;75320;51.608;7.952;2024-01-07T03:54:18;26.93;;;15.43;;
84999;SDS011;75320;51.608;7.952;2024-01-07T03:56:44;28.17;;;14.90;;
84999;SDS011;75320;51.608;7.952;2024-01-07T03:59:09;27.60;;;16.73;;
84999;SDS011;75320;51.608;7.952;2024-01-07T04:01:36;29.70;;;16.15;;
84999;SDS011;75320;51.608;7.952;2024-01-07T04:04:01;25.70;;;15.50;;
84999;SDS011;75320;51.608;7.952;2024-01-07T04:06:26;32.03;;;15.68;;
84999;SDS011;75320;51.608;7.952;2024-01-07T04:08:52;27.50;;;15.90;;
84999;SDS011;75320;51.608;7.952;2024-01-07T04:11:18;29.60;;;17.13;;
84999;SDS011;75320;51.608;7.952;2024-01-07T04:13:43;26.00;;;14.40;;
84999;SDS011;75320;51.608;7.952;2024-01-07T04:16:17;26.65;;;15.85;;
84999;SDS011;75320;51.608;7.952;2024-01-07T04:18:43;26.15;;;15.68;;
84999;SDS011;75320;51.608;7.952;2024-01-07T04:21:09;26.48;;;15.88;;
84999;SDS011;75320;51.608;7.952;2024-01-07T04:23:35;30.02;;;16.33;;
84999;SDS011;75320;51.608;7.952;2024-01-07T04:26:00;26.97;;;15.30;;
84999;SDS011;75320;51.608;7.952;2024-01-07T04:28:25;25.57;;;14.20;;
84999;SDS011;75320;51.608;7.952;2024-01-07T04:30:52;30.90;;;16.10;;
84999;SDS011;75320;51.608;7.952;2024-01-07T04:33:17;23.75;;;14.65;;
84999;SDS011;75320;51.608;7.952;2024-01-07T04:35:43;24.67;;;14.27;;
84999;SDS011;75320;51.608;7.952;2024-01-07T04:38:08;24.40;;;13.73;;
84999;SDS011;75320;51.608;7.952;2024-01-07T04:40:35;22.55;;;13.65;;
84999;SDS011;75320;51.608;7.952;2024-01-07T04:43:00;24.50;;;13.80;;
84999;SDS011;75320;51.608;7.952;2024-01-07T04:45:27;23.15;;;13.27;;
84999;SDS011;75320;51.608;7.952;2024-01-07T04:47:52;24.38;;;12.73;;
84999;SDS011;75320;51.608;7.952;2024-01-07T04:50:18;20.17;;;12.47;;
84999;SDS011;75320;51.608;7.952;2024-01-07T04:52:45;23.85;;;14.55;;
84999;SDS011;75320;51.608;7.952;2024-01-07T04:55:12;21.90;;;12.32;;
84999;SDS011;75320;51.608;7.952;2024-01-07T04:57:37;19.83;;;11.93;;
84999;SDS011;75320;51.608;7.952;2024-01-07T05:00:03;21.85;;;13.82;;
84999;SDS011;75320;51.608;7.952;2024-01-07T05:02:29;22.60;;;15.40;;
84999;SDS011;75320;51.608;7.952;2024-01-07T05:04:54;20.08;;;13.77;;
84999;SDS011;75320;51.608;7.952;2024-01-07T05:07:20;20.13;;;13.35;;
84999;SDS011;75320;51.608;7.952;2024-01-07T05:09:45;19.90;;;12.18;;
84999;SDS011;75320;51.608;7.952;2024-01-07T05:12:10;23.40;;;14.35;;
84999;SDS011;75320;51.608;7.952;2024-01-07T05:14:37;22.73;;;15.38;;
84999;SDS011;75320;51.608;7.952;2024-01-07T05:17:03;23.17;;;13.13;;
84999;SDS011;75320;51.608;7.952;2024-01-07T05:19:29;17.52;;;11.50;;
84999;SDS011;75320;51.608;7.952;2024-01-07T05:21:54;20.50;;;13.27;;
84999;SDS011;75320;51.608;7.952;2024-01-07T05:24:20;23.70;;;13.02;;
84999;SDS011;75320;51.608;7.952;2024-01-07T05:26:45;21.30;;;11.33;;
84999;SDS011;75320;51.608;7.952;2024-01-07T05:29:10;18.42;;;11.20;;
84999;SDS011;75320;51.608;7.952;2024-01-07T05:31:39;19.42;;;11.63;;
84999;SDS011;75320;51.608;7.952;2024-01-07T05:34:05;19.83;;;12.60;;
84999;SDS011;75320;51.608;7.952;2024-01-07T05:36:32;22.35;;;12.70;;
84999;SDS011;75320;51.608;7.952;2024-01-07T05:38:57;20.73;;;11.50;;
84999;SDS011;75320;51.608;7.952;2024-01-07T05:41:22;16.87;;;11.77;;
84999;SDS011;75320;51.608;7.952;2024-01-07T05:43:48;21.63;;;12.60;;
84999;SDS011;75320;51.608;7.952;2024-01-07T05:46:13;22.45;;;13.07;;
84999;SDS011;75320;51.608;7.952;2024-01-07T05:48:42;22.38;;;12.82;;
84999;SDS011;75320;51.608;7.952;2024-01-07T05:51:09;19.85;;;12.32;;
84999;SDS011;75320;51.608;7.952;2024-01-07T05:53:34;20.42;;;12.35;;
84999;SDS011;75320;51.608;7.952;2024-01-07T05:56:00;20.80;;;12.07;;
84999;SDS011;75320;51.608;7.952;2024-01-07T05:58:25;19.10;;;11.50;;
84999;SDS011;75320;51.608;7.952;2024-01-07T06:00:50;18.27;;;11.65;;
84999;SDS011;75320;51.608;7.952;2024-01-07T06:03:16;20.48;;;11.15;;
84999;SDS011;75320;51.608;7.952;2024-01-07T06:05:41;18.20;;;11.40;;
84999;SDS011;75320;51.608;7.952;2024-01-07T06:08:08;14.10;;;10.07;;
84999;SDS011;75320;51.608;7.952;2024-01-07T06:10:35;19.38;;;10.93;;
84999;SDS011;75320;51.608;7.952;2024-01-07T06:13:00;17.80;;;10.43;;
84999;SDS011;75320;51.608;7.952;2024-01-07T06:15:26;17.70;;;11.67;;
84999;SDS011;75320;51.608;7.952;2024-01-07T06:17:52;15.32;;;10.25;;
84999;SDS011;75320;51.608;7.952;2024-01-07T06:20:17;13.80;;;9.13;;
84999;SDS011;75320;51.608;7.952;2024-01-07T06:22:44;14.60;;;8.90;;
84999;SDS011;75320;51.608;7.952;2024-01-07T06:25:09;12.02;;;7.97;;
84999;SDS011;75320;51.608;7.952;2024-01-07T06:27:35;10.93;;;6.60;;
84999;SDS011;75320;51.608;7.952;2024-01-07T06:30:00;14.90;;;8.02;;
84999;SDS011;75320;51.608;7.952;2024-01-07T06:32:25;10.30;;;6.07;;
84999;SDS011;75320;51.608;7.952;2024-01-07T06:34:51;12.18;;;7.85;;
84999;SDS011;75320;51.608;7.952;2024-01-07T06:37:17;9.80;;;7.40;;
84999;SDS011;75320;51.608;7.952;2024-01-07T06:39:42;8.67;;;5.87;;
84999;SDS011;75320;51.608;7.952;2024-01-07T06:42:10;12.37;;;7.33;;
84999;SDS011;75320;51.608;7.952;2024-01-07T06:44:36;12.35;;;7.30;;
84999;SDS011;75320;51.608;7.952;2024-01-07T06:47:01;12.90;;;7.40;;
84999;SDS011;75320;51.608;7.952;2024-01-07T06:49:27;12.50;;;7.43;;
84999;SDS011;75320;51.608;7.952;2024-01-07T06:51:52;14.43;;;8.27;;
84999;SDS011;75320;51.608;7.952;2024-01-07T06:54:17;15.47;;;9.37;;
84999;SDS011;75320;51.608;7.952;2024-01-07T06:56:43;15.60;;;9.13;;
84999;SDS011;75320;51.608;7.952;2024-01-07T06:59:08;16.93;;;9.10;;
84999;SDS011;75320;51.608;7.952;2024-01-07T07:01:35;16.05;;;10.10;;
84999;SDS011;75320;51.608;7.952;2024-01-07T07:04:00;18.37;;;10.97;;
84999;SDS011;75320;51.608;7.952;2024-01-07T07:06:27;15.75;;;10.30;;
84999;SDS011;75320;51.608;7.952;2024-01-07T07:08:53;16.23;;;10.10;;
84999;SDS011;75320;51.608;7.952;2024-01-07T07:11:18;18.47;;;10.87;;
84999;SDS011;75320;51.608;7.952;2024-01-07T07:13:44;22.55;;;12.15;;
84999;SDS011;75320;51.608;7.952;2024-01-07T07:16:10;20.30;;;12.70;;
84999;SDS011;75320;51.608;7.952;2024-01-07T07:18:35;18.48;;;10.70;;
84999;SDS011;75320;51.608;7.952;2024-01-07T07:21:02;17.75;;;11.13;;
84999;SDS011;75320;51.608;7.952;2024-01-07T07:23:28;21.20;;;12.55;;
84999;SDS011;75320;51.608;7.952;2024-01-07T07:25:56;21.95;;;11.95;;
84999;SDS011;75320;51.608;7.952;2024-01-07T07:28:21;19.08;;;11.23;;
84999;SDS011;75320;51.608;7.952;2024-01-07T07:30:47;19.25;;;11.57;;
84999;SDS011;75320;51.608;7.952;2024-01-07T07:33:13;19.07;;;12.17;;
84999;SDS011;75320;51.608;7.952;2024-01-07T07:35:40;15.18;;;11.38;;
84999;SDS011;75320;51.608;7.952;2024-01-07T07:38:06;19.48;;;10.73;;
84999;SDS011;75320;51.608;7.952;2024-01-07T07:40:32;16.63;;;11.15;;
84999;SDS011;75320;51.608;7.952;2024-01-07T07:42:57;18.37;;;10.80;;
84999;SDS011;75320;51.608;7.952;2024-01-07T07:45:24;20.00;;;11.13;;
84999;SDS011;75320;51.608;7.952;2024-01-07T07:47:49;19.20;;;10.57;;
84999;SDS011;75320;51.608;7.952;2024-01-07T07:50:14;19.23;;;11.17;;
84999;SDS011;75320;51.608;7.952;2024-01-07T07:52:43;18.48;;;10.23;;
84999;SDS011;75320;51.608;7.952;2024-01-07T07:55:11;16.48;;;9.75;;
84999;SDS011;75320;51.608;7.952;2024-01-07T07:57:36;18.92;;;10.45;;
84999;SDS011;75320;51.608;7.952;2024-01-07T08:00:04;14.75;;;9.02;;
84999;SDS011;75320;51.608;7.952;2024-01-07T08:02:30;15.77;;;9.93;;
84999;SDS011;75320;51.608;7.952;2024-01-07T08:04:57;15.23;;;9.65;;
84999;SDS011;75320;51.608;7.952;2024-01-07T08:07:22;14.75;;;8.80;;
84999;SDS011;75320;51.608;7.952;2024-01-07T08:09:48;21.80;;;12.60;;
84999;SDS011;75320;51.608;7.952;2024-01-07T08:12:14;15.38;;;9.35;;
84999;SDS011;75320;51.608;7.952;2024-01-07T08:14:40;16.52;;;10.68;;
84999;SDS011;75320;51.608;7.952;2024-01-07T08:17:08;17.15;;;10.43;;
84999;SDS011;75320;51.608;7.952;2024-01-07T08:19:33;13.57;;;8.32;;
84999;SDS011;75320;51.608;7.952;2024-01-07T08:21:59;12.52;;;8.63;;
84999;SDS011;75320;51.608;7.952;2024-01-07T08:24:24;15.20;;;8.70;;
84999;SDS011;75320;51.608;7.952;2024-01-07T08:26:50;15.02;;;9.48;;
84999;SDS011;75320;51.608;7.952;2024-01-07T08:29:15;12.57;;;7.95;;
84999;SDS011;75320;51.608;7.952;2024-01-07T08:31:40;14.07;;;8.00;;
84999;SDS011;75320;51.608;7.952;2024-01-07T08:34:07;12.98;;;9.10;;
84999;SDS011;75320;51.608;7.952;2024-01-07T08:36:32;14.52;;;8.70;;
84999;SDS011;75320;51.608;7.952;2024-01-07T08:38:58;13.60;;;8.15;;
84999;SDS011;75320;51.608;7.952;2024-01-07T08:41:23;11.33;;;7.20;;
84999;SDS011;75320;51.608;7.952;2024-01-07T08:43:49;11.07;;;7.15;;
84999;SDS011;75320;51.608;7.952;2024-01-07T08:46:20;9.60;;;6.18;;
84999;SDS011;75320;51.608;7.952;2024-01-07T08:51:11;8.97;;;6.07;;
84999;SDS011;75320;51.608;7.952;2024-01-07T08:53:37;13.30;;;7.03;;
84999;SDS011;75320;51.608;7.952;2024-01-07T08:56:03;9.20;;;6.57;;
84999;SDS011;75320;51.608;7.952;2024-01-07T08:58:28;10.27;;;7.07;;
84999;SDS011;75320;51.608;7.952;2024-01-07T09:00:53;13.43;;;6.77;;
84999;SDS011;75320;51.608;7.952;2024-01-07T09:03:20;9.88;;;6.47;;
84999;SDS011;75320;51.608;7.952;2024-01-07T09:05:45;8.70;;;5.47;;
84999;SDS011;75320;51.608;7.952;2024-01-07T09:08:12;11.13;;;6.15;;
84999;SDS011;75320;51.608;7.952;2024-01-07T09:10:39;9.18;;;6.18;;
84999;SDS011;75320;51.608;7.952;2024-01-07T09:13:05;9.13;;;5.97;;
84999;SDS011;75320;51.608;7.952;2024-01-07T09:15:30;12.63;;;6.93;;
84999;SDS011;75320;51.608;7.952;2024-01-07T09:17:56;13.90;;;6.97;;
84999;SDS011;75320;51.608;7.952;2024-01-07T09:20:21;10.15;;;6.00;;
84999;SDS011;75320;51.608;7.952;2024-01-07T09:22:47;11.43;;;6.18;;
84999;SDS011;75320;51.608;7.952;2024-01-07T09:25:14;10.02;;;6.43;;
84999;SDS011;75320;51.608;7.952;2024-01-07T09:27:39;12.13;;;6.57;;
84999;SDS011;75320;51.608;7.952;2024-01-07T09:30:04;10.73;;;6.63;;
84999;SDS011;75320;51.608;7.952;2024-01-07T09:32:30;10.13;;;5.55;;
84999;SDS011;75320;51.608;7.952;2024-01-07T09:34:56;7.55;;;4.43;;
84999;SDS011;75320;51.608;7.952;2024-01-07T09:37:23;10.32;;;5.82;;
84999;SDS011;75320;51.608;7.952;2024-01-07T09:39:48;9.82;;;6.55;;
84999;SDS011;75320;51.608;7.952;2024-01-07T09:42:15;8.98;;;5.70;;
84999;SDS011;75320;51.608;7.952;2024-01-07T09:44:42;9.73;;;6.50;;
84999;SDS011;75320;51.608;7.952;2024-01-07T09:47:11;7.95;;;5.05;;
84999;SDS011;75320;51.608;7.952;2024-01-07T09:49:38;8.65;;;6.07;;
84999;SDS011;75320;51.608;7.952;2024-01-07T09:52:04;8.75;;;4.47;;
84999;SDS011;75320;51.608;7.952;2024-01-07T09:54:30;7.57;;;4.22;;
84999;SDS011;75320;51.608;7.952;2024-01-07T09:57:01;5.97;;;4.20;;
84999;SDS011;75320;51.608;7.952;2024-01-07T09:59:30;9.05;;;4.75;;
84999;SDS011;75320;51.608;7.952;2024-01-07T10:01:56;6.20;;;3.53;;
84999;SDS011;75320;51.608;7.952;2024-01-07T10:04:23;10.57;;;5.55;;
84999;SDS011;75320;51.608;7.952;2024-01-07T10:06:49;7.60;;;4.90;;
84999;SDS011;75320;51.608;7.952;2024-01-07T10:09:16;8.93;;;5.47;;
84999;SDS011;75320;51.608;7.952;2024-01-07T10:11:45;7.55;;;5.68;;
84999;SDS011;75320;51.608;7.952;2024-01-07T10:14:11;7.30;;;5.03;;
84999;SDS011;75320;51.608;7.952;2024-01-07T10:16:38;7.72;;;5.07;;
84999;SDS011;75320;51.608;7.952;2024-01-07T10:19:04;8.95;;;4.80;;
84999;SDS011;75320;51.608;7.952;2024-01-07T10:21:29;7.40;;;5.00;;
84999;SDS011;75320;51.608;7.952;2024-01-07T10:24:06;6.17;;;4.57;;
84999;SDS011;75320;51.608;7.952;2024-01-07T10:26:34;7.57;;;4.85;;
84999;SDS011;75320;51.608;7.952;2024-01-07T10:29:02;7.18;;;5.38;;
84999;SDS011;75320;51.608;7.952;2024-01-07T10:31:27;6.17;;;4.27;;
84999;SDS011;75320;51.608;7.952;2024-01-07T10:33:55;8.25;;;4.72;;
84999;SDS011;75320;51.608;7.952;2024-01-07T10:36:22;8.70;;;5.22;;
84999;SDS011;75320;51.608;7.952;2024-01-07T10:38:49;10.65;;;5.47;;
84999;SDS011;75320;51.608;7.952;2024-01-07T10:41:15;9.30;;;4.85;;
84999;SDS011;75320;51.608;7.952;2024-01-07T10:43:43;7.25;;;5.15;;
84999;SDS011;75320;51.608;7.952;2024-01-07T10:46:14;8.45;;;5.80;;
84999;SDS011;75320;51.608;7.952;2024-01-07T10:48:59;8.52;;;4.90;;
84999;SDS011;75320;51.608;7.952;2024-01-07T10:51:28;8.95;;;4.90;;
84999;SDS011;75320;51.608;7.952;2024-01-07T10:53:53;8.95;;;5.22;;
84999;SDS011;75320;51.608;7.952;2024-01-07T10:56:22;6.72;;;4.32;;
84999;SDS011;75320;51.608;7.952;2024-01-07T11:01:16;6.25;;;4.05;;
84999;SDS011;75320;51.608;7.952;2024-01-07T11:03:47;5.53;;;3.65;;
84999;SDS011;75320;51.608;7.952;2024-01-07T11:06:49;4.97;;;2.95;;
84999;SDS011;75320;51.608;7.952;2024-01-07T11:09:44;6.85;;;4.53;;
84999;SDS011;75320;51.608;7.952;2024-01-07T11:12:23;7.60;;;3.17;;
84999;SDS011;75320;51.608;7.952;2024-01-07T11:14:48;7.75;;;4.50;;
84999;SDS011;75320;51.608;7.952;2024-01-07T11:17:40;6.78;;;3.90;;
84999;SDS011;75320;51.608;7.952;2024-01-07T11:20:21;9.45;;;5.05;;
84999;SDS011;75320;51.608;7.952;2024-01-07T11:22:47;7.72;;;4.38;;
84999;SDS011;75320;51.608;7.952;2024-01-07T11:25:46;6.43;;;4.43;;
84999;SDS011;75320;51.608;7.952;2024-01-07T11:28:05;7.25;;;3.80;;
84999;SDS011;75320;51.608;7.952;2024-01-07T11:30:37;7.22;;;4.10;;
84999;SDS011;75320;51.608;7.952;2024-01-07T11:33:04;6.43;;;4.28;;
84999;SDS011;75320;51.608;7.952;2024-01-07T11:38:26;8.63;;;4.03;;
84999;SDS011;75320;51.608;7.952;2024-01-07T11:40:51;6.57;;;4.55;;
84999;SDS011;75320;51.608;7.952;2024-01-07T11:43:17;7.05;;;4.38;;
84999;SDS011;75320;51.608;7.952;2024-01-07T11:45:43;7.00;;;4.13;;
84999;SDS011;75320;51.608;7.952;2024-01-07T11:48:09;5.50;;;3.92;;
84999;SDS011;75320;51.608;7.952;2024-01-07T11:50:37;3.90;;;2.70;;
84999;SDS011;75320;51.608;7.952;2024-01-07T11:53:03;7.78;;;3.58;;
84999;SDS011;75320;51.608;7.952;2024-01-07T11:55:29;6.43;;;3.72;;
84999;SDS011;75320;51.608;7.952;2024-01-07T11:57:57;6.68;;;4.18;;
84999;SDS011;75320;51.608;7.952;2024-01-07T12:00:26;6.38;;;3.10;;
84999;SDS011;75320;51.608;7.952;2024-01-07T12:02:52;5.57;;;3.28;;
84999;SDS011;75320;51.608;7.952;2024-01-07T12:05:18;6.47;;;3.75;;
84999;SDS011;75320;51.608;7.952;2024-01-07T12:07:44;5.53;;;3.47;;
84999;SDS011;75320;51.608;7.952;2024-01-07T12:10:09;6.20;;;3.38;;
84999;SDS011;75320;51.608;7.952;2024-01-07T12:12:40;5.88;;;3.38;;
84999;SDS011;75320;51.608;7.952;2024-01-07T12:15:15;6.13;;;3.20;;
84999;SDS011;75320;51.608;7.952;2024-01-07T12:17:41;11.38;;;4.65;;
84999;SDS011;75320;51.608;7.952;2024-01-07T12:20:08;6.18;;;4.10;;
84999;SDS011;75320;51.608;7.952;2024-01-07T12:22:38;7.32;;;4.20;;
84999;SDS011;75320;51.608;7.952;2024-01-07T12:25:05;5.22;;;3.05;;
84999;SDS011;75320;51.608;7.952;2024-01-07T12:27:32;5.10;;;3.10;;
84999;SDS011;75320;51.608;7.952;2024-01-07T12:29:59;4.93;;;3.10;;
84999;SDS011;75320;51.608;7.952;2024-01-07T12:32:29;5.82;;;2.88;;
84999;SDS011;75320;51.608;7.952;2024-01-07T12:34:59;6.85;;;3.53;;
84999;SDS011;75320;51.608;7.952;2024-01-07T12:37:28;5.22;;;3.05;;
84999;SDS011;75320;51.608;7.952;2024-01-07T12:39:57;9.55;;;4.00;;
84999;SDS011;75320;51.608;7.952;2024-01-07T12:42:22;7.05;;;3.20;;
84999;SDS011;75320;51.608;7.952;2024-01-07T12:44:49;6.00;;;3.78;;
84999;SDS011;75320;51.608;7.952;2024-01-07T12:47:14;5.35;;;3.40;;
84999;SDS011;75320;51.608;7.952;2024-01-07T12:49:40;7.05;;;3.67;;
84999;SDS011;75320;51.608;7.952;2024-01-07T12:52:05;4.85;;;2.85;;
84999;SDS011;75320;51.608;7.952;2024-01-07T12:54:30;5.63;;;3.00;;
84999;SDS011;75320;51.608;7.952;2024-01-07T12:56:56;5.32;;;2.90;;
84999;SDS011;75320;51.608;7.952;2024-01-07T12:59:21;6.17;;;3.23;;
84999;SDS011;75320;51.608;7.952;2024-01-07T13:01:47;6.97;;;4.40;;
84999;SDS011;75320;51.608;7.952;2024-01-07T13:04:12;7.63;;;3.78;;
84999;SDS011;75320;51.608;7.952;2024-01-07T13:06:38;4.75;;;3.13;;
84999;SDS011;75320;51.608;7.952;2024-01-07T13:09:03;5.60;;;3.90;;
84999;SDS011;75320;51.608;7.952;2024-01-07T13:11:29;4.72;;;2.88;;
84999;SDS011;75320;51.608;7.952;2024-01-07T13:13:55;5.97;;;3.10;;
84999;SDS011;75320;51.608;7.952;2024-01-07T13:16:25;6.78;;;3.08;;
84999;SDS011;75320;51.608;7.952;2024-01-07T13:18:52;6.55;;;3.33;;
84999;SDS011;75320;51.608;7.952;2024-01-07T13:21:17;5.53;;;3.53;;
84999;SDS011;75320;51.608;7.952;2024-01-07T13:23:43;5.30;;;2.92;;
84999;SDS011;75320;51.608;7.952;2024-01-07T13:26:09;5.18;;;3.22;;
84999;SDS011;75320;51.608;7.952;2024-01-07T13:28:35;5.20;;;3.80;;
84999;SDS011;75320;51.608;7.952;2024-01-07T13:31:02;5.53;;;3.03;;
84999;SDS011;75320;51.608;7.952;2024-01-07T13:33:29;6.35;;;3.58;;
84999;SDS011;75320;51.608;7.952;2024-01-07T13:35:55;5.82;;;2.78;;
84999;SDS011;75320;51.608;7.952;2024-01-07T13:38:20;6.15;;;3.10;;
84999;SDS011;75320;51.608;7.952;2024-01-07T13:40:47;5.57;;;3.00;;
84999;SDS011;75320;51.608;7.952;2024-01-07T13:43:12;4.50;;;3.28;;
84999;SDS011;75320;51.608;7.952;2024-01-07T13:45:38;6.53;;;3.03;;
84999;SDS011;75320;51.608;7.952;2024-01-07T13:48:03;6.57;;;2.88;;
84999;SDS011;75320;51.608;7.952;2024-01-07T13:50:29;5.80;;;4.38;;
84999;SDS011;75320;51.608;7.952;2024-01-07T13:52:54;5.90;;;3.27;;
84999;SDS011;75320;51.608;7.952;2024-01-07T13:55:19;7.50;;;4.27;;
84999;SDS011;75320;51.608;7.952;2024-01-07T13:57:45;5.63;;;3.47;;
84999;SDS011;75320;51.608;7.952;2024-01-07T14:00:11;7.85;;;3.90;;
84999;SDS011;75320;51.608;7.952;2024-01-07T14:02:46;6.78;;;3.85;;
84999;SDS011;75320;51.608;7.952;2024-01-07T14:05:12;5.55;;;3.65;;
84999;SDS011;75320;51.608;7.952;2024-01-07T14:07:38;5.75;;;3.80;;
84999;SDS011;75320;51.608;7.952;2024-01-07T14:10:04;6.50;;;3.63;;
84999;SDS011;75320;51.608;7.952;2024-01-07T14:12:31;7.15;;;3.15;;
84999;SDS011;75320;51.608;7.952;2024-01-07T14:14:56;6.63;;;3.50;;
84999;SDS011;75320;51.608;7.952;2024-01-07T14:17:23;6.32;;;3.10;;
84999;SDS011;75320;51.608;7.952;2024-01-07T14:19:48;7.18;;;3.00;;
84999;SDS011;75320;51.608;7.952;2024-01-07T14:22:15;3.97;;;2.72;;
84999;SDS011;75320;51.608;7.952;2024-01-07T14:24:41;6.95;;;3.17;;
84999;SDS011;75320;51.608;7.952;2024-01-07T14:27:07;4.80;;;2.75;;
84999;SDS011;75320;51.608;7.952;2024-01-07T14:29:33;5.28;;;4.28;;
84999;SDS011;75320;51.608;7.952;2024-01-07T14:32:00;4.72;;;2.80;;
84999;SDS011;75320;51.608;7.952;2024-01-07T14:34:28;5.65;;;2.92;;
84999;SDS011;75320;51.608;7.952;2024-01-07T14:36:55;4.07;;;2.70;;